Wakou Maru — JD2997 — position and weather

sailwx.info

Track history (hours):
 
Tides and Currents Weather Stations Pressure Air Temp Water Temp Dewpoint Dewpoint Depression Visibility Wind Speed Wind Dir Waves Ship Positions

Wakou Maru

Last reported at 2018-Jul-15 14:10 UTC. Time now 2018-Jul-22 03:02 UTC.
Position N 34°25' E 134°21'.

Length 104 m; draft 6.3 m.

Type: Tanker. MMSI: 431001142.

Date/timePositionNaut miles runAvg speedWind from/ knotsBaromVisibWave heightAir tempDewpointWater temp
2018-Jul-15 14:10N 34°25' E 134°21'413.5
2018-Jul-15 13:55N 34°26' E 134°24'513.6
2018-Jul-15 13:30N 34°28' E 134°31'713.6
2018-Jul-15 13:00N 34°31' E 134°38'815.3
2018-Jul-15 12:30N 34°34' E 134°47'917.2
2018-Jul-15 12:00N 34°37' E 134°57'715.4
2018-Jul-15 11:30N 34°36' E 135°06'611.9
2018-Jul-15 11:00N 34°35' E 135°13'612.9
2018-Jul-15 10:30N 34°34' E 135°21'5 9.1
2018-Jul-15 10:00N 34°34' E 135°26'0 0.0
2018-Jul-15 09:30N 34°34' E 135°26'0 0.0
2018-Jul-15 09:00N 34°34' E 135°26'0 0.0
2018-Jul-15 08:30N 34°34' E 135°26'0 0.0
2018-Jul-15 08:00N 34°34' E 135°26'0 0.0
2018-Jul-15 07:30N 34°34' E 135°26'0 0.0
2018-Jul-15 07:00N 34°34' E 135°26'0 0.0
2018-Jul-15 06:30N 34°34' E 135°26'0 0.0
2018-Jul-15 06:00N 34°34' E 135°26'0 0.0
2018-Jul-15 05:28N 34°34' E 135°26'0 0.0
2018-Jul-15 05:00N 34°34' E 135°26'0 0.0
2018-Jul-15 04:30N 34°34' E 135°26'0 0.0
2018-Jul-15 04:00N 34°34' E 135°26'0 0.0
2018-Jul-15 03:30N 34°34' E 135°26'0 0.5
2018-Jul-15 03:00N 34°33' E 135°26'1 2.1
2018-Jul-15 02:30N 34°33' E 135°25'5 9.8
2018-Jul-15 02:00N 34°33' E 135°19'1 1.9
2018-Jul-15 01:25N 34°32' E 135°18'0 0.0
2018-Jul-15 00:55N 34°32' E 135°18'0 0.0
2018-Jul-15 00:25N 34°32' E 135°18'0 0.0
2018-Jul-14 23:58N 34°32' E 135°18'0 0.0
2018-Jul-14 23:25N 34°32' E 135°18'0 0.0
2018-Jul-14 22:55N 34°32' E 135°18'0 0.0
2018-Jul-14 22:28N 34°32' E 135°18'0 0.0
2018-Jul-14 21:58N 34°32' E 135°18'0 0.0
2018-Jul-14 21:25N 34°32' E 135°18'0 0.1
2018-Jul-14 20:49N 34°32' E 135°18'0 0.0
2018-Jul-14 20:25N 34°32' E 135°18'0 0.1
2018-Jul-14 19:55N 34°32' E 135°18'0 0.0
2018-Jul-14 19:25N 34°32' E 135°18'0 0.0
2018-Jul-14 19:00N 34°32' E 135°18'5 9.3
2018-Jul-14 18:30N 34°34' E 135°12'815.2
2018-Jul-14 18:00N 34°36' E 135°03'814.2
2018-Jul-14 17:27N 34°35' E 134°54'614.4
2018-Jul-14 17:00N 34°32' E 134°47'713.8
2018-Jul-14 16:30N 34°29' E 134°39'714.5
2018-Jul-14 16:01N 34°27' E 134°31'713.9
2018-Jul-14 15:30N 34°24' E 134°23'913.0
2018-Jul-14 14:50N 34°24' E 134°13'  
2018-Jul-08 05:54N 34°27' E 134°29'614.0
2018-Jul-08 05:29N 34°30' E 134°36'613.5
2018-Jul-08 05:00N 34°32' E 134°43'713.7
2018-Jul-08 04:29N 34°35' E 134°51'714.1
2018-Jul-08 04:00N 34°38' E 134°59'611.9
2018-Jul-08 03:30N 34°34' E 135°05'612.8
2018-Jul-08 03:00N 34°28' E 135°03'713.3
2018-Jul-08 02:30N 34°22' E 135°01'612.9
2018-Jul-08 02:01N 34°15' E 134°59'613.0
2018-Jul-08 01:31N 34°09' E 134°59'714.1
2018-Jul-08 01:00N 34°02' E 134°60'714.0
2018-Jul-08 00:30N 33°55' E 134°60'7 0.1
2018-Jul-05 23:16N 33°48' E 135°02'312.9
2018-Jul-05 23:00N 33°51' E 134°60'612.7
2018-Jul-05 22:30N 33°57' E 134°59'612.3
2018-Jul-05 22:00N 34°03' E 134°59'713.1
2018-Jul-05 21:31N 34°10' E 134°58'714.6
2018-Jul-05 21:01N 34°17' E 134°58'714.2
2018-Jul-05 20:30N 34°24' E 135°00'714.0
2018-Jul-05 20:01N 34°31' E 135°01'611.4
2018-Jul-05 19:30N 34°37' E 135°01'5 9.2
2018-Jul-05 19:00N 34°35' E 134°56'612.3
2018-Jul-05 18:30N 34°33' E 134°49'713.0
2018-Jul-05 18:00N 34°31' E 134°42'713.7
2018-Jul-05 17:30N 34°28' E 134°34'713.4
2018-Jul-05 17:00N 34°25' E 134°26'  
Track history (hours):
 
Tides and Currents Weather Stations Pressure Air Temp Water Temp Dewpoint Dewpoint Depression Visibility Wind Speed Wind Dir Waves Ship Positions

Wakou Maru

Last reported at 2018-Jul-15 14:10 UTC. Time now 2018-Jul-22 03:02 UTC.
Position N 34°25' E 134°21'.

Length 104 m; draft 6.3 m.

Type: Tanker. MMSI: 431001142.

Date/timePositionNaut miles runAvg speedWind from/ knotsBaromVisibWave heightAir tempDewpointWater temp
2018-Jul-15 14:10N 34°25' E 134°21'413.5
2018-Jul-15 13:55N 34°26' E 134°24'513.6
2018-Jul-15 13:30N 34°28' E 134°31'713.6
2018-Jul-15 13:00N 34°31' E 134°38'815.3
2018-Jul-15 12:30N 34°34' E 134°47'917.2
2018-Jul-15 12:00N 34°37' E 134°57'715.4
2018-Jul-15 11:30N 34°36' E 135°06'611.9
2018-Jul-15 11:00N 34°35' E 135°13'612.9
2018-Jul-15 10:30N 34°34' E 135°21'5 9.1
2018-Jul-15 10:00N 34°34' E 135°26'0 0.0
2018-Jul-15 09:30N 34°34' E 135°26'0 0.0
2018-Jul-15 09:00N 34°34' E 135°26'0 0.0
2018-Jul-15 08:30N 34°34' E 135°26'0 0.0
2018-Jul-15 08:00N 34°34' E 135°26'0 0.0
2018-Jul-15 07:30N 34°34' E 135°26'0 0.0
2018-Jul-15 07:00N 34°34' E 135°26'0 0.0
2018-Jul-15 06:30N 34°34' E 135°26'0 0.0
2018-Jul-15 06:00N 34°34' E 135°26'0 0.0
2018-Jul-15 05:28N 34°34' E 135°26'0 0.0
2018-Jul-15 05:00N 34°34' E 135°26'0 0.0
2018-Jul-15 04:30N 34°34' E 135°26'0 0.0
2018-Jul-15 04:00N 34°34' E 135°26'0 0.0
2018-Jul-15 03:30N 34°34' E 135°26'0 0.5
2018-Jul-15 03:00N 34°33' E 135°26'1 2.1
2018-Jul-15 02:30N 34°33' E 135°25'5 9.8
2018-Jul-15 02:00N 34°33' E 135°19'1 1.9
2018-Jul-15 01:25N 34°32' E 135°18'0 0.0
2018-Jul-15 00:55N 34°32' E 135°18'0 0.0
2018-Jul-15 00:25N 34°32' E 135°18'0 0.0
2018-Jul-14 23:58N 34°32' E 135°18'0 0.0
2018-Jul-14 23:25N 34°32' E 135°18'0 0.0
2018-Jul-14 22:55N 34°32' E 135°18'0 0.0
2018-Jul-14 22:28N 34°32' E 135°18'0 0.0
2018-Jul-14 21:58N 34°32' E 135°18'0 0.0
2018-Jul-14 21:25N 34°32' E 135°18'0 0.1
2018-Jul-14 20:49N 34°32' E 135°18'0 0.0
2018-Jul-14 20:25N 34°32' E 135°18'0 0.1
2018-Jul-14 19:55N 34°32' E 135°18'0 0.0
2018-Jul-14 19:25N 34°32' E 135°18'0 0.0
2018-Jul-14 19:00N 34°32' E 135°18'5 9.3
2018-Jul-14 18:30N 34°34' E 135°12'815.2
2018-Jul-14 18:00N 34°36' E 135°03'814.2
2018-Jul-14 17:27N 34°35' E 134°54'614.4
2018-Jul-14 17:00N 34°32' E 134°47'713.8
2018-Jul-14 16:30N 34°29' E 134°39'714.5
2018-Jul-14 16:01N 34°27' E 134°31'713.9
2018-Jul-14 15:30N 34°24' E 134°23'913.0
2018-Jul-14 14:50N 34°24' E 134°13'  
2018-Jul-08 05:54N 34°27' E 134°29'614.0
2018-Jul-08 05:29N 34°30' E 134°36'613.5
2018-Jul-08 05:00N 34°32' E 134°43'713.7
2018-Jul-08 04:29N 34°35' E 134°51'714.1
2018-Jul-08 04:00N 34°38' E 134°59'611.9
2018-Jul-08 03:30N 34°34' E 135°05'612.8
2018-Jul-08 03:00N 34°28' E 135°03'713.3
2018-Jul-08 02:30N 34°22' E 135°01'612.9
2018-Jul-08 02:01N 34°15' E 134°59'613.0
2018-Jul-08 01:31N 34°09' E 134°59'714.1
2018-Jul-08 01:00N 34°02' E 134°60'714.0
2018-Jul-08 00:30N 33°55' E 134°60'7 0.1
2018-Jul-05 23:16N 33°48' E 135°02'312.9
2018-Jul-05 23:00N 33°51' E 134°60'612.7
2018-Jul-05 22:30N 33°57' E 134°59'612.3
2018-Jul-05 22:00N 34°03' E 134°59'713.1
2018-Jul-05 21:31N 34°10' E 134°58'714.6
2018-Jul-05 21:01N 34°17' E 134°58'714.2
2018-Jul-05 20:30N 34°24' E 135°00'714.0
2018-Jul-05 20:01N 34°31' E 135°01'611.4
2018-Jul-05 19:30N 34°37' E 135°01'5 9.2
2018-Jul-05 19:00N 34°35' E 134°56'612.3
2018-Jul-05 18:30N 34°33' E 134°49'713.0
2018-Jul-05 18:00N 34°31' E 134°42'713.7
2018-Jul-05 17:30N 34°28' E 134°34'713.4
2018-Jul-05 17:00N 34°25' E 134°26'  

Dump ship's entire track history